createdAt,value
2022-12-04T00:03:53.490Z,72.60
2022-12-04T00:06:03.610Z,70.13
2022-12-04T00:08:06.932Z,67.25
2022-12-04T00:10:09.946Z,67.93
2022-12-04T00:12:11.762Z,69.20
2022-12-04T00:14:14.902Z,57.35
2022-12-04T00:16:18.806Z,75.05
2022-12-04T00:18:20.538Z,59.05
2022-12-04T00:20:22.204Z,66.68
2022-12-04T00:22:23.778Z,69.18
2022-12-04T00:24:25.591Z,52.85
2022-12-04T00:28:32.627Z,52.83
2022-12-04T00:30:35.762Z,71.50
2022-12-04T00:32:37.331Z,68.45
2022-12-04T00:34:38.914Z,82.28
2022-12-04T00:36:40.915Z,73.75
2022-12-04T00:38:43.546Z,70.60
2022-12-04T00:40:49.625Z,64.55
2022-12-04T00:42:51.793Z,72.47
2022-12-04T00:44:53.405Z,75.15
2022-12-04T00:46:56.304Z,80.00
2022-12-04T00:48:58.048Z,84.28
2022-12-04T00:51:02.316Z,80.53
2022-12-04T00:53:04.007Z,72.28
2022-12-04T00:55:06.852Z,68.78
2022-12-04T00:57:08.409Z,70.68
2022-12-04T00:59:10.485Z,78.68
2022-12-04T01:01:14.230Z,81.28
2022-12-04T01:03:17.379Z,80.88
2022-12-04T01:05:19.171Z,65.07
2022-12-04T01:07:20.880Z,69.00
2022-12-04T01:09:22.861Z,74.90
2022-12-04T01:11:26.442Z,74.25
2022-12-04T01:13:27.995Z,81.03
2022-12-04T01:15:29.547Z,76.30
2022-12-04T01:17:31.146Z,83.57
2022-12-04T01:19:34.101Z,75.45
2022-12-04T01:21:37.091Z,80.18
2022-12-04T01:23:38.692Z,72.20
2022-12-04T01:25:40.417Z,84.03
2022-12-04T01:27:42.012Z,73.78
2022-12-04T01:29:43.535Z,82.32
2022-12-04T01:31:45.250Z,89.18
2022-12-04T01:33:48.154Z,63.22
2022-12-04T01:35:53.982Z,79.70
2022-12-04T01:37:55.531Z,74.65
2022-12-04T01:39:57.519Z,75.00
2022-12-04T01:41:59.355Z,77.30
2022-12-04T01:44:13.101Z,76.32
2022-12-04T01:46:14.728Z,87.32
2022-12-04T01:48:24.543Z,83.20
2022-12-04T01:50:26.176Z,84.72
2022-12-04T01:52:29.129Z,86.13
2022-12-04T01:54:34.215Z,75.70
2022-12-04T01:56:41.570Z,82.00
2022-12-04T01:58:47.831Z,70.30
2022-12-04T02:00:58.217Z,76.65
2022-12-04T02:03:00.568Z,69.50
2022-12-04T02:05:04.029Z,84.50
2022-12-04T02:07:05.680Z,85.97
2022-12-04T02:09:08.821Z,81.05
2022-12-04T02:11:26.778Z,66.22
2022-12-04T02:13:34.968Z,78.88
2022-12-04T02:17:51.381Z,62.95
2022-12-04T02:20:16.548Z,74.38
2022-12-04T02:22:31.357Z,67.63
2022-12-04T02:24:49.968Z,81.57
2022-12-04T02:26:57.441Z,88.32
2022-12-04T02:29:06.469Z,80.43
2022-12-04T02:31:16.993Z,81.82
2022-12-04T02:33:22.266Z,80.10
2022-12-04T02:35:30.397Z,76.18
2022-12-04T02:37:35.186Z,87.82
2022-12-04T02:39:41.387Z,77.00
2022-12-04T02:41:47.972Z,80.30
2022-12-04T02:43:52.168Z,81.47
2022-12-04T02:46:00.259Z,80.65
2022-12-04T02:50:10.123Z,81.85
2022-12-04T02:52:16.060Z,76.80
2022-12-04T02:54:24.884Z,82.78
2022-12-04T02:56:29.987Z,62.85
2022-12-04T02:58:37.832Z,82.38
2022-12-04T03:00:41.970Z,64.75
2022-12-04T03:02:48.468Z,85.32
2022-12-04T03:04:54.412Z,80.28
2022-12-04T03:06:59.364Z,67.55
2022-12-04T03:09:05.877Z,54.85
2022-12-04T03:11:07.861Z,78.10
2022-12-04T03:13:13.551Z,76.43
2022-12-04T03:15:21.955Z,66.05
2022-12-04T03:17:29.531Z,76.63
2022-12-04T03:19:39.279Z,79.22
2022-12-04T03:21:46.202Z,86.97
2022-12-04T03:23:51.792Z,66.05
2022-12-04T03:25:58.613Z,79.40
2022-12-04T03:28:03.557Z,87.88
2022-12-04T03:30:07.655Z,90.22
2022-12-04T03:32:13.128Z,84.18
2022-12-04T03:34:24.014Z,88.70
2022-12-04T03:36:31.301Z,87.20
2022-12-04T03:38:38.085Z,73.10
2022-12-04T03:40:44.255Z,78.85
2022-12-04T03:42:48.660Z,52.88
2022-12-04T03:44:58.065Z,66.68
2022-12-04T03:47:04.320Z,64.15
2022-12-04T03:49:17.055Z,77.05
2022-12-04T03:51:23.712Z,92.53
2022-12-04T03:53:33.777Z,69.35
2022-12-04T03:55:41.717Z,83.95
2022-12-04T03:57:46.695Z,84.43
2022-12-04T03:59:56.154Z,80.90
2022-12-04T04:02:01.954Z,84.32
2022-12-04T04:04:07.040Z,92.00
2022-12-04T04:06:14.017Z,83.10
2022-12-04T04:08:19.651Z,74.95
2022-12-04T04:10:26.502Z,67.03
2022-12-04T04:12:34.279Z,80.82
2022-12-04T04:14:41.454Z,74.38
2022-12-04T04:16:47.728Z,60.63
2022-12-04T04:18:52.327Z,78.05
2022-12-04T04:20:59.584Z,88.28
2022-12-04T04:23:05.499Z,79.85
2022-12-04T04:25:10.552Z,78.05
2022-12-04T04:27:13.938Z,80.20
2022-12-04T04:29:15.691Z,74.65
2022-12-04T04:31:27.235Z,79.57
2022-12-04T04:33:30.551Z,87.35
2022-12-04T04:35:41.354Z,79.90
2022-12-04T04:37:52.860Z,76.32
2022-12-04T04:40:01.402Z,79.65
2022-12-04T04:42:11.054Z,63.78
2022-12-04T04:44:19.928Z,76.20
2022-12-04T04:46:24.985Z,78.78
2022-12-04T04:48:31.405Z,82.78
2022-12-04T04:50:35.001Z,76.85
2022-12-04T04:52:38.395Z,86.10
2022-12-04T04:54:40.648Z,73.40
2022-12-04T04:56:44.349Z,68.25
2022-12-04T04:58:45.890Z,77.10
2022-12-04T05:00:56.675Z,71.20
2022-12-04T05:02:58.437Z,80.75
2022-12-04T05:05:00.095Z,75.72
2022-12-04T05:07:01.709Z,81.30
2022-12-04T05:09:04.938Z,75.32
2022-12-04T05:11:10.669Z,73.90
2022-12-04T05:13:12.719Z,79.72
2022-12-04T05:15:14.392Z,79.68
2022-12-04T05:17:17.710Z,82.05
2022-12-04T05:19:19.545Z,57.42
2022-12-04T05:23:23.223Z,51.95
2022-12-04T05:25:25.488Z,66.75
2022-12-04T05:27:28.721Z,60.78
2022-12-04T05:29:35.580Z,66.30
2022-12-04T05:31:37.570Z,74.78
2022-12-04T05:33:40.625Z,79.13
2022-12-04T05:35:42.175Z,84.38
2022-12-04T05:37:43.762Z,62.47
2022-12-04T05:39:45.823Z,77.70
2022-12-04T05:41:47.583Z,71.30
2022-12-04T05:43:49.413Z,65.32
2022-12-04T05:47:52.748Z,70.72
2022-12-04T05:51:58.202Z,72.10
2022-12-04T05:54:00.080Z,80.40
2022-12-04T05:58:04.504Z,64.22
2022-12-04T06:02:08.563Z,67.35
2022-12-04T06:04:10.952Z,81.90
2022-12-04T06:06:21.013Z,66.75
2022-12-04T06:08:23.239Z,84.95
2022-12-04T06:10:24.951Z,78.80
2022-12-04T06:12:26.857Z,72.88
2022-12-04T06:14:28.894Z,77.65
2022-12-04T06:16:33.168Z,79.90
2022-12-04T06:18:34.858Z,77.07
2022-12-04T06:20:38.183Z,58.60
2022-12-04T06:22:41.226Z,74.57
2022-12-04T06:24:42.750Z,78.63
2022-12-04T06:27:11.238Z,78.90
2022-12-04T06:29:06.532Z,68.95
2022-12-04T06:31:10.590Z,71.88
2022-12-04T06:33:12.251Z,80.70
2022-12-04T06:35:13.877Z,72.00
2022-12-04T06:37:15.457Z,82.78
2022-12-04T06:39:19.233Z,70.28
2022-12-04T06:41:22.094Z,77.28
2022-12-04T06:43:24.200Z,78.65
2022-12-04T06:45:25.979Z,68.65
2022-12-04T06:49:28.878Z,74.82
2022-12-04T06:51:32.608Z,69.70
2022-12-04T06:53:35.003Z,67.22
2022-12-04T06:55:37.875Z,73.07
2022-12-04T06:57:39.673Z,62.40
2022-12-04T06:59:41.265Z,76.63
2022-12-04T07:01:42.905Z,74.65
2022-12-04T07:03:51.027Z,85.07
2022-12-04T07:05:53.259Z,65.82
2022-12-04T07:07:54.874Z,78.45
2022-12-04T07:09:56.806Z,75.57
2022-12-04T07:11:59.912Z,79.25
2022-12-04T07:14:02.207Z,63.35
2022-12-04T07:16:06.446Z,61.17
2022-12-04T07:18:08.090Z,66.35
2022-12-04T07:20:10.525Z,73.82
2022-12-04T07:22:12.111Z,83.88
2022-12-04T07:24:15.568Z,66.78
2022-12-04T07:26:17.128Z,75.78
2022-12-04T07:28:20.085Z,78.20
2022-12-04T07:30:21.584Z,72.07
2022-12-04T07:32:23.162Z,63.53
2022-12-04T07:34:24.835Z,71.93
2022-12-04T07:36:27.236Z,64.43
2022-12-04T07:38:29.801Z,75.38
2022-12-04T07:40:31.581Z,55.63
2022-12-04T07:44:35.863Z,78.40
2022-12-04T07:46:37.513Z,75.25
2022-12-04T07:48:39.148Z,76.40
2022-12-04T07:50:40.784Z,65.13
2022-12-04T07:52:42.336Z,67.53
2022-12-04T07:54:43.878Z,66.15
2022-12-04T07:56:45.441Z,71.63
2022-12-04T07:58:47.176Z,66.78
2022-12-04T08:00:50.190Z,71.78
2022-12-04T08:02:51.860Z,81.60
2022-12-04T08:04:53.511Z,73.72
2022-12-04T08:06:55.058Z,62.88
2022-12-04T08:08:56.798Z,60.45
2022-12-04T08:10:58.598Z,73.22
2022-12-04T08:15:01.883Z,76.88
2022-12-04T08:17:04.868Z,83.90
2022-12-04T08:19:06.632Z,71.93
2022-12-04T08:21:10.696Z,73.90
2022-12-04T08:23:12.260Z,67.70
2022-12-04T08:25:14.062Z,64.05
2022-12-04T08:27:15.610Z,59.58
2022-12-04T08:29:17.250Z,68.75
2022-12-04T08:31:21.127Z,52.90
2022-12-04T08:33:24.071Z,82.95
2022-12-04T08:35:25.636Z,59.70
2022-12-04T08:37:27.159Z,71.50
2022-12-04T08:39:28.736Z,55.42
2022-12-04T08:41:30.308Z,66.38
2022-12-04T08:43:32.018Z,57.42
2022-12-04T08:45:33.544Z,60.78
2022-12-04T08:47:35.127Z,63.75
2022-12-04T08:49:38.043Z,67.72
2022-12-04T08:51:39.694Z,62.40
2022-12-04T08:53:41.330Z,71.00
2022-12-04T08:55:42.891Z,63.63
2022-12-04T08:57:44.415Z,58.20
2022-12-04T08:59:46.125Z,64.57
2022-12-04T09:01:50.143Z,62.90
2022-12-04T09:03:51.827Z,80.32
2022-12-04T09:05:58.977Z,69.97
2022-12-04T09:08:00.666Z,73.50
2022-12-04T09:10:02.278Z,65.25
2022-12-04T09:12:04.160Z,63.78
2022-12-04T09:14:05.721Z,65.80
2022-12-04T09:16:09.650Z,68.50
2022-12-04T09:18:11.457Z,69.97
2022-12-04T09:22:15.901Z,77.63
2022-12-04T09:24:17.513Z,62.13
2022-12-04T09:26:21.987Z,57.90
2022-12-04T09:28:23.523Z,74.18
2022-12-04T09:30:28.143Z,61.92
2022-12-04T09:32:29.716Z,66.68
2022-12-04T09:34:31.259Z,71.82
2022-12-04T09:36:32.914Z,56.17
2022-12-04T09:38:35.940Z,63.45
2022-12-04T09:40:46.870Z,63.38
2022-12-04T09:42:56.153Z,69.80
2022-12-04T09:45:02.745Z,60.88
2022-12-04T09:47:10.209Z,65.00
2022-12-04T09:49:17.582Z,75.75
2022-12-04T09:51:22.930Z,74.05
2022-12-04T09:53:28.729Z,73.00
2022-12-04T09:55:36.576Z,61.15
2022-12-04T09:57:44.569Z,65.25
2022-12-04T09:59:50.221Z,66.05
2022-12-04T10:02:02.409Z,60.08
2022-12-04T10:04:12.384Z,63.42
2022-12-04T10:06:18.236Z,55.33
2022-12-04T10:08:22.972Z,61.78
2022-12-04T10:10:36.280Z,57.50
2022-12-04T10:12:45.003Z,59.92
2022-12-04T10:15:01.733Z,53.72
2022-12-04T10:17:32.451Z,67.88
2022-12-04T10:19:43.270Z,68.25
2022-12-04T10:21:54.135Z,58.60
2022-12-04T10:24:16.563Z,68.10
2022-12-04T10:26:24.166Z,68.55
2022-12-04T10:28:31.678Z,57.10
2022-12-04T10:30:36.799Z,64.90
2022-12-04T10:32:38.810Z,63.92
2022-12-04T10:34:45.505Z,60.35
2022-12-04T10:36:56.307Z,63.00
2022-12-04T10:39:42.338Z,65.82
2022-12-04T10:42:00.305Z,49.58
2022-12-04T10:44:02.188Z,56.58
2022-12-04T10:48:06.261Z,67.70
2022-12-04T10:50:16.120Z,70.25
2022-12-04T10:52:17.759Z,62.60
2022-12-04T10:54:22.284Z,50.80
2022-12-04T10:56:26.134Z,60.17
2022-12-04T10:58:29.143Z,50.83
2022-12-04T11:00:32.616Z,74.15
2022-12-04T11:02:35.124Z,54.80
2022-12-04T11:04:37.181Z,59.17
2022-12-04T11:06:39.055Z,57.63
2022-12-04T11:10:44.358Z,62.42
2022-12-04T11:12:53.877Z,66.20
2022-12-04T11:15:13.302Z,64.07
2022-12-04T11:17:17.387Z,56.80
2022-12-04T11:19:22.136Z,46.97
2022-12-04T11:21:27.255Z,56.00
2022-12-04T11:23:32.351Z,52.25
2022-12-04T11:25:44.965Z,58.10
2022-12-04T11:27:48.926Z,37.58
2022-12-04T11:29:51.414Z,60.40
2022-12-04T11:31:55.640Z,55.55
2022-12-04T11:34:00.031Z,49.97
2022-12-04T11:36:06.044Z,54.95
2022-12-04T11:38:14.258Z,52.53
2022-12-04T11:42:24.150Z,55.63
2022-12-04T11:44:27.507Z,54.50
2022-12-04T11:46:31.299Z,43.60
2022-12-04T11:48:42.958Z,60.88
2022-12-04T11:50:53.297Z,45.92
2022-12-04T11:53:06.244Z,52.22
2022-12-04T11:55:17.503Z,57.42
2022-12-04T11:57:30.269Z,44.88
2022-12-04T11:59:59.380Z,46.47
2022-12-04T12:02:29.495Z,47.78
2022-12-04T12:05:01.024Z,46.38
2022-12-04T12:07:16.285Z,60.50
2022-12-04T12:09:25.807Z,51.88
2022-12-04T12:11:33.169Z,49.38
2022-12-04T12:13:47.660Z,49.65
2022-12-04T12:18:07.884Z,51.20
2022-12-04T12:20:23.998Z,38.25
2022-12-04T12:22:43.273Z,53.63
2022-12-04T12:24:55.392Z,54.35
2022-12-04T12:27:16.542Z,47.92
2022-12-04T12:29:33.865Z,57.97
2022-12-04T12:31:54.413Z,51.10
2022-12-04T12:34:00.258Z,52.35
2022-12-04T12:36:08.187Z,50.65
2022-12-04T12:38:14.639Z,52.13
2022-12-04T12:40:26.769Z,51.95
2022-12-04T12:42:34.390Z,55.92
2022-12-04T12:44:43.555Z,54.38
2022-12-04T12:46:50.565Z,56.55
2022-12-04T12:48:59.708Z,53.58
2022-12-04T12:51:29.690Z,54.45
2022-12-04T12:53:37.163Z,57.60
2022-12-04T12:55:42.449Z,47.28
2022-12-04T12:57:49.679Z,54.70
2022-12-04T12:59:55.637Z,53.13
2022-12-04T13:02:01.640Z,47.92
2022-12-04T13:04:09.543Z,50.45
2022-12-04T13:06:16.835Z,48.25
2022-12-04T13:08:24.504Z,55.80
2022-12-04T13:10:31.866Z,53.92
2022-12-04T13:12:43.936Z,50.72
2022-12-04T13:14:49.073Z,52.08
2022-12-04T13:16:54.032Z,52.92
2022-12-04T13:19:05.248Z,53.67
2022-12-04T13:21:10.860Z,52.22
2022-12-04T13:23:26.733Z,55.00
2022-12-04T13:25:40.178Z,55.05
2022-12-04T13:27:52.909Z,57.80
2022-12-04T13:30:03.496Z,55.65
2022-12-04T13:32:27.528Z,51.50
2022-12-04T13:34:50.985Z,57.38
2022-12-04T13:37:12.190Z,55.22
2022-12-04T13:39:48.628Z,51.03
2022-12-04T13:41:57.652Z,53.92
2022-12-04T13:44:04.141Z,53.13
2022-12-04T13:46:25.562Z,62.80
2022-12-04T13:48:30.810Z,49.63
2022-12-04T13:50:33.977Z,54.80
2022-12-04T13:52:40.997Z,62.65
2022-12-04T13:54:56.254Z,56.63
2022-12-04T13:57:17.863Z,55.90
2022-12-04T13:59:34.302Z,46.75
2022-12-04T14:01:39.256Z,47.72
2022-12-04T14:03:47.165Z,70.78
2022-12-04T14:05:48.998Z,65.15
2022-12-04T14:10:22.906Z,61.40
2022-12-04T14:12:28.408Z,60.20
2022-12-04T14:14:37.302Z,147.75
2022-12-04T14:16:41.039Z,93.10
2022-12-04T14:18:47.694Z,62.20
2022-12-04T14:20:58.541Z,65.35
2022-12-04T14:23:23.645Z,65.85
2022-12-04T14:25:35.742Z,64.45
2022-12-04T14:27:44.018Z,65.47
2022-12-04T14:29:49.505Z,66.70
2022-12-04T14:31:53.412Z,51.65
2022-12-04T14:33:58.313Z,62.28
2022-12-04T14:36:03.605Z,70.55
2022-12-04T14:38:07.166Z,53.65
2022-12-04T14:40:19.495Z,73.85
2022-12-04T14:42:26.024Z,72.68
2022-12-04T14:44:29.628Z,65.13
2022-12-04T14:46:39.574Z,60.53
2022-12-04T14:48:53.066Z,63.58
2022-12-04T14:51:04.709Z,55.95
2022-12-04T14:53:16.973Z,70.93
2022-12-04T14:55:28.087Z,75.78
2022-12-04T14:57:44.772Z,73.68
2022-12-04T14:59:48.430Z,70.00
2022-12-04T15:01:53.604Z,73.45
2022-12-04T15:03:57.688Z,55.15
2022-12-04T15:06:03.984Z,74.68
2022-12-04T15:08:06.296Z,81.05
2022-12-04T15:10:20.428Z,74.68
2022-12-04T15:12:23.803Z,76.13
2022-12-04T15:14:26.812Z,83.15
2022-12-04T15:16:28.581Z,84.70
2022-12-04T15:20:43.292Z,54.53
2022-12-04T15:22:45.610Z,77.05
2022-12-04T15:24:47.286Z,71.30
2022-12-04T15:26:50.023Z,77.10
2022-12-04T15:28:55.689Z,59.53
2022-12-04T15:31:01.934Z,75.45
2022-12-04T15:33:04.293Z,69.07
2022-12-04T15:35:09.113Z,80.63
2022-12-04T15:37:23.132Z,72.28
2022-12-04T15:39:27.739Z,82.03
2022-12-04T15:41:32.291Z,82.32
2022-12-04T15:43:40.151Z,93.95
2022-12-04T15:45:41.837Z,88.43
2022-12-04T15:47:52.784Z,90.13
2022-12-04T15:49:54.913Z,71.53
2022-12-04T15:52:05.967Z,75.25
2022-12-04T15:54:13.705Z,76.95
2022-12-04T15:56:17.960Z,88.35
2022-12-04T15:58:22.164Z,87.93
2022-12-04T16:00:27.331Z,84.60
2022-12-04T16:02:31.421Z,68.05
2022-12-04T16:04:34.934Z,79.47
2022-12-04T16:06:46.455Z,81.72
2022-12-04T16:08:50.750Z,93.03
2022-12-04T16:10:58.091Z,85.80
2022-12-04T16:13:01.401Z,97.03
2022-12-04T16:15:03.107Z,85.22
2022-12-04T16:17:06.525Z,84.93
2022-12-04T16:19:13.652Z,97.15
2022-12-04T16:21:18.205Z,75.82
2022-12-04T16:23:19.801Z,95.22
2022-12-04T16:25:21.392Z,103.63
2022-12-04T16:27:24.302Z,98.88
2022-12-04T16:29:26.092Z,97.72
2022-12-04T16:33:29.372Z,67.97
2022-12-04T16:37:33.788Z,101.15
2022-12-04T16:39:41.078Z,96.00
2022-12-04T16:41:43.026Z,98.80
2022-12-04T16:43:44.783Z,89.80
2022-12-04T16:45:48.914Z,88.65
2022-12-04T16:47:50.584Z,98.80
2022-12-04T16:49:52.470Z,113.43
2022-12-04T16:51:54.092Z,103.57
2022-12-04T16:53:57.077Z,109.75
2022-12-04T16:55:58.641Z,114.13
2022-12-04T16:58:00.244Z,98.68
2022-12-04T17:00:02.057Z,93.53
2022-12-04T17:02:06.951Z,108.80
2022-12-04T17:04:09.990Z,110.20
2022-12-04T17:06:11.748Z,116.72
2022-12-04T17:08:13.627Z,106.40
2022-12-04T17:10:23.293Z,96.80
2022-12-04T17:12:25.523Z,106.88
2022-12-04T17:14:27.152Z,109.55
2022-12-04T17:16:28.800Z,107.93
2022-12-04T17:18:30.617Z,119.63
2022-12-04T17:20:32.342Z,93.40
2022-12-04T17:22:34.139Z,130.85
2022-12-04T17:24:35.902Z,104.47
2022-12-04T17:26:38.845Z,115.75
2022-12-04T17:28:41.342Z,98.75
2022-12-04T17:30:45.385Z,111.47
2022-12-04T17:32:47.025Z,110.80
2022-12-04T17:34:48.723Z,98.60
2022-12-04T17:36:50.353Z,111.60
2022-12-04T17:38:53.873Z,103.78
2022-12-04T17:40:59.659Z,120.97
2022-12-04T17:43:02.765Z,114.97
2022-12-04T17:45:04.940Z,117.93
2022-12-04T17:47:06.592Z,111.03
2022-12-04T17:49:08.321Z,111.63
2022-12-04T17:51:11.685Z,114.05
2022-12-04T17:53:13.317Z,119.45
2022-12-04T17:55:15.344Z,101.53
2022-12-04T17:57:17.503Z,91.47
2022-12-04T17:59:20.842Z,104.22
2022-12-04T18:01:24.537Z,112.88
2022-12-04T18:03:26.252Z,101.57
2022-12-04T18:05:29.035Z,87.22
2022-12-04T18:07:30.834Z,106.38
2022-12-04T18:09:32.576Z,114.00
2022-12-04T18:11:36.385Z,104.43
2022-12-04T18:13:38.104Z,107.32
2022-12-04T18:15:41.013Z,102.60
2022-12-04T18:17:44.682Z,98.32
2022-12-04T18:19:46.402Z,99.38
2022-12-04T18:21:51.010Z,97.43
2022-12-04T18:23:55.581Z,117.80
2022-12-04T18:25:58.873Z,92.60
2022-12-04T18:28:00.553Z,103.50
2022-12-04T18:30:02.164Z,112.10
2022-12-04T18:32:05.458Z,88.68
2022-12-04T18:34:08.147Z,108.30
2022-12-04T18:36:12.763Z,93.35
2022-12-04T18:38:14.637Z,112.00
2022-12-04T18:40:16.568Z,138.52
2022-12-04T18:42:20.611Z,103.22
2022-12-04T18:44:22.785Z,100.20
2022-12-04T18:46:25.155Z,100.40
2022-12-04T18:48:28.426Z,106.35
2022-12-04T18:50:30.146Z,96.28
2022-12-04T18:52:35.154Z,95.03
2022-12-04T18:54:36.909Z,105.72
2022-12-04T18:58:41.405Z,97.22
2022-12-04T19:00:46.179Z,92.03
2022-12-04T19:02:48.800Z,84.85
2022-12-04T19:04:52.154Z,69.70
2022-12-04T19:06:55.699Z,96.53
2022-12-04T19:08:59.462Z,84.00
2022-12-04T19:11:06.322Z,84.35
2022-12-04T19:13:07.993Z,80.00
2022-12-04T19:15:10.818Z,84.93
2022-12-04T19:17:12.452Z,83.40
2022-12-04T19:19:14.743Z,75.03
2022-12-04T19:21:18.240Z,83.45
2022-12-04T19:23:19.838Z,89.53
2022-12-04T19:25:21.540Z,95.15
2022-12-04T19:27:23.175Z,108.22
2022-12-04T19:29:24.808Z,106.25
2022-12-04T19:31:27.960Z,103.90
2022-12-04T19:33:29.620Z,83.20
2022-12-04T19:35:31.466Z,100.35
2022-12-04T19:37:39.630Z,100.60
2022-12-04T19:39:43.625Z,102.68
2022-12-04T19:41:45.382Z,104.90
2022-12-04T19:45:49.364Z,80.28
2022-12-04T19:49:52.356Z,90.68
2022-12-04T19:51:53.958Z,82.50
2022-12-04T19:53:57.028Z,92.10
2022-12-04T19:56:02.466Z,74.20
2022-12-04T19:58:06.348Z,89.63
2022-12-04T20:00:09.173Z,96.43
2022-12-04T20:02:11.502Z,71.95
2022-12-04T20:04:13.193Z,78.38
2022-12-04T20:06:16.466Z,84.68
2022-12-04T20:08:18.090Z,65.43
2022-12-04T20:10:21.177Z,93.03
2022-12-04T20:12:22.840Z,91.13
2022-12-04T20:14:24.458Z,91.00
2022-12-04T20:16:28.494Z,73.65
2022-12-04T20:18:30.401Z,74.20
2022-12-04T20:22:33.507Z,87.65
2022-12-04T20:24:35.239Z,86.43
2022-12-04T20:28:41.433Z,74.15
2022-12-04T20:30:43.301Z,87.07
2022-12-04T20:32:45.003Z,78.25
2022-12-04T20:34:46.866Z,81.50
2022-12-04T20:36:49.374Z,76.35
2022-12-04T20:38:52.756Z,82.85
2022-12-04T20:40:54.384Z,90.20
2022-12-04T20:42:57.778Z,86.32
2022-12-04T20:44:59.623Z,79.55
2022-12-04T20:49:05.496Z,83.35
2022-12-04T20:51:07.387Z,83.68
2022-12-04T20:53:09.025Z,85.93
2022-12-04T20:55:10.706Z,75.18
2022-12-04T20:57:12.393Z,91.95
2022-12-04T20:59:17.787Z,85.13
2022-12-04T21:01:19.844Z,92.75
2022-12-04T21:03:21.478Z,83.70
2022-12-04T21:05:23.223Z,85.05
2022-12-04T21:09:26.149Z,82.80
2022-12-04T21:11:30.372Z,74.13
2022-12-04T21:13:31.931Z,92.10
2022-12-04T21:15:35.617Z,84.00
2022-12-04T21:17:37.291Z,85.78
2022-12-04T21:19:39.040Z,91.22
2022-12-04T21:23:42.886Z,79.28
2022-12-04T21:25:44.710Z,76.55
2022-12-04T21:29:48.195Z,72.93
2022-12-04T21:31:51.279Z,88.22
2022-12-04T21:33:53.084Z,81.20
2022-12-04T21:37:56.121Z,71.07
2022-12-04T21:39:59.287Z,88.25
2022-12-04T21:42:01.424Z,79.18
2022-12-04T21:46:09.683Z,85.07
2022-12-04T21:48:12.804Z,84.72
2022-12-04T21:50:14.360Z,86.95
2022-12-04T21:52:16.799Z,87.07
2022-12-04T21:54:18.519Z,89.75
2022-12-04T21:56:20.275Z,93.95
2022-12-04T22:00:24.414Z,81.63
2022-12-04T22:04:28.817Z,71.70
2022-12-04T22:06:30.917Z,92.38
2022-12-04T22:08:35.064Z,92.50
2022-12-04T22:10:40.275Z,89.32
2022-12-04T22:12:49.621Z,97.05
2022-12-04T22:14:51.970Z,92.32
2022-12-04T22:16:53.581Z,86.25
2022-12-04T22:18:55.995Z,98.43
2022-12-04T22:20:59.525Z,79.35
2022-12-04T22:23:01.173Z,92.10
2022-12-04T22:25:02.897Z,100.05
2022-12-04T22:27:04.424Z,74.38
2022-12-04T22:29:26.991Z,82.95
2022-12-04T22:31:29.678Z,89.82
2022-12-04T22:33:31.776Z,106.68
2022-12-04T22:35:34.130Z,90.55
2022-12-04T22:37:41.224Z,89.05
2022-12-04T22:39:45.711Z,87.63
2022-12-04T22:41:47.343Z,109.65
2022-12-04T22:43:48.992Z,76.68
2022-12-04T22:45:50.538Z,76.70
2022-12-04T22:47:52.264Z,84.43
2022-12-04T22:49:54.135Z,82.85
2022-12-04T22:51:55.793Z,100.82
2022-12-04T22:53:58.811Z,101.57
2022-12-04T22:56:06.196Z,92.72
2022-12-04T22:58:07.739Z,86.68
2022-12-04T23:00:10.081Z,76.38
2022-12-04T23:02:12.279Z,90.72
2022-12-04T23:04:13.919Z,82.30
2022-12-04T23:06:17.365Z,87.43
2022-12-04T23:08:19.101Z,85.72
2022-12-04T23:12:23.532Z,96.32
2022-12-04T23:14:25.326Z,91.15
2022-12-04T23:18:29.416Z,90.10
2022-12-04T23:20:31.246Z,101.80
2022-12-04T23:22:32.796Z,83.88
2022-12-04T23:24:34.317Z,80.85
2022-12-04T23:26:40.163Z,91.30
2022-12-04T23:28:42.140Z,96.13
2022-12-04T23:30:47.320Z,87.30
2022-12-04T23:32:48.925Z,96.47
2022-12-04T23:34:50.517Z,87.65
2022-12-04T23:36:52.078Z,87.00
2022-12-04T23:38:53.855Z,99.90
2022-12-04T23:43:03.054Z,83.03
2022-12-04T23:45:05.115Z,89.47
2022-12-04T23:47:06.796Z,89.70
2022-12-04T23:51:11.409Z,80.25
2022-12-04T23:53:13.091Z,93.28
2022-12-04T23:55:14.731Z,102.18
2022-12-04T23:57:16.317Z,98.68
2022-12-04T23:59:19.223Z,87.32
